sensor_id;sensor_type;location;lat;lon;timestamp;temperature;humidity
15143;DHT22;7672;50.834;6.286;2024-03-17T00:01:43;9.30;99.90
15143;DHT22;7672;50.834;6.286;2024-03-17T00:04:09;9.30;99.90
15143;DHT22;7672;50.834;6.286;2024-03-17T00:06:36;9.80;99.90
15143;DHT22;7672;50.834;6.286;2024-03-17T00:09:02;9.30;99.90
15143;DHT22;7672;50.834;6.286;2024-03-17T00:11:35;9.30;99.90
15143;DHT22;7672;50.834;6.286;2024-03-17T00:14:02;9.30;99.90
15143;DHT22;7672;50.834;6.286;2024-03-17T00:16:28;9.30;99.90
15143;DHT22;7672;50.834;6.286;2024-03-17T00:18:54;9.20;99.90
15143;DHT22;7672;50.834;6.286;2024-03-17T00:21:22;9.20;99.90
15143;DHT22;7672;50.834;6.286;2024-03-17T00:23:57;9.30;99.90
15143;DHT22;7672;50.834;6.286;2024-03-17T00:26:25;9.20;99.90
15143;DHT22;7672;50.834;6.286;2024-03-17T00:28:52;9.40;99.90
15143;DHT22;7672;50.834;6.286;2024-03-17T00:31:19;9.30;99.90
15143;DHT22;7672;50.834;6.286;2024-03-17T00:33:45;9.30;99.90
15143;DHT22;7672;50.834;6.286;2024-03-17T00:36:12;9.30;99.90
15143;DHT22;7672;50.834;6.286;2024-03-17T00:38:38;9.30;99.90
15143;DHT22;7672;50.834;6.286;2024-03-17T00:41:04;9.30;99.90
15143;DHT22;7672;50.834;6.286;2024-03-17T00:43:30;9.30;99.90
15143;DHT22;7672;50.834;6.286;2024-03-17T00:45:56;9.30;99.90
15143;DHT22;7672;50.834;6.286;2024-03-17T00:48:23;9.30;99.90
15143;DHT22;7672;50.834;6.286;2024-03-17T00:50:56;9.30;99.90
15143;DHT22;7672;50.834;6.286;2024-03-17T00:53:25;9.30;99.90
15143;DHT22;7672;50.834;6.286;2024-03-17T00:55:54;9.60;99.90
15143;DHT22;7672;50.834;6.286;2024-03-17T00:58:25;9.70;99.90
15143;DHT22;7672;50.834;6.286;2024-03-17T01:00:57;9.30;99.90
15143;DHT22;7672;50.834;6.286;2024-03-17T01:03:25;9.70;99.90
15143;DHT22;7672;50.834;6.286;2024-03-17T01:05:53;9.30;99.90
15143;DHT22;7672;50.834;6.286;2024-03-17T01:08:21;9.30;99.90
15143;DHT22;7672;50.834;6.286;2024-03-17T01:10:48;9.30;99.90
15143;DHT22;7672;50.834;6.286;2024-03-17T01:13:42;9.70;99.90
15143;DHT22;7672;50.834;6.286;2024-03-17T01:16:09;9.30;99.90
15143;DHT22;7672;50.834;6.286;2024-03-17T01:18:35;9.30;99.90
15143;DHT22;7672;50.834;6.286;2024-03-17T01:21:03;9.50;99.90
15143;DHT22;7672;50.834;6.286;2024-03-17T01:23:30;9.20;99.90
15143;DHT22;7672;50.834;6.286;2024-03-17T01:25:56;9.20;99.90
15143;DHT22;7672;50.834;6.286;2024-03-17T01:28:22;9.20;99.90
15143;DHT22;7672;50.834;6.286;2024-03-17T01:30:48;9.20;99.90
15143;DHT22;7672;50.834;6.286;2024-03-17T01:33:14;9.10;99.90
15143;DHT22;7672;50.834;6.286;2024-03-17T01:35:41;9.10;99.90
15143;DHT22;7672;50.834;6.286;2024-03-17T01:38:29;9.10;99.90
15143;DHT22;7672;50.834;6.286;2024-03-17T01:41:05;9.10;99.90
15143;DHT22;7672;50.834;6.286;2024-03-17T01:43:31;9.10;99.90
15143;DHT22;7672;50.834;6.286;2024-03-17T01:45:58;9.00;99.90
15143;DHT22;7672;50.834;6.286;2024-03-17T01:48:26;9.00;99.90
15143;DHT22;7672;50.834;6.286;2024-03-17T01:50:57;9.00;99.90
15143;DHT22;7672;50.834;6.286;2024-03-17T01:53:25;8.90;99.90
15143;DHT22;7672;50.834;6.286;2024-03-17T01:56:06;8.90;99.90
15143;DHT22;7672;50.834;6.286;2024-03-17T01:59:08;8.90;99.90
15143;DHT22;7672;50.834;6.286;2024-03-17T02:01:37;8.90;99.90
15143;DHT22;7672;50.834;6.286;2024-03-17T02:04:04;8.90;99.90
15143;DHT22;7672;50.834;6.286;2024-03-17T02:06:31;8.80;99.90
15143;DHT22;7672;50.834;6.286;2024-03-17T02:08:57;8.80;99.90
15143;DHT22;7672;50.834;6.286;2024-03-17T02:13:56;8.70;99.90
15143;DHT22;7672;50.834;6.286;2024-03-17T02:16:23;8.70;99.90
15143;DHT22;7672;50.834;6.286;2024-03-17T02:18:56;8.70;99.90
15143;DHT22;7672;50.834;6.286;2024-03-17T02:21:28;8.70;99.90
15143;DHT22;7672;50.834;6.286;2024-03-17T02:24:13;8.70;99.90
15143;DHT22;7672;50.834;6.286;2024-03-17T02:26:39;8.60;99.90
15143;DHT22;7672;50.834;6.286;2024-03-17T02:29:06;8.60;99.90
15143;DHT22;7672;50.834;6.286;2024-03-17T02:31:32;8.60;99.90
15143;DHT22;7672;50.834;6.286;2024-03-17T02:33:58;8.80;99.90
15143;DHT22;7672;50.834;6.286;2024-03-17T02:36:24;8.50;99.90
15143;DHT22;7672;50.834;6.286;2024-03-17T02:38:50;8.50;99.90
15143;DHT22;7672;50.834;6.286;2024-03-17T02:41:35;8.50;99.90
15143;DHT22;7672;50.834;6.286;2024-03-17T02:44:01;8.50;99.90
15143;DHT22;7672;50.834;6.286;2024-03-17T02:46:27;8.50;99.90
15143;DHT22;7672;50.834;6.286;2024-03-17T02:48:54;8.50;99.90
15143;DHT22;7672;50.834;6.286;2024-03-17T02:51:21;8.80;99.90
15143;DHT22;7672;50.834;6.286;2024-03-17T02:53:49;8.50;99.90
15143;DHT22;7672;50.834;6.286;2024-03-17T02:56:24;8.50;99.90
15143;DHT22;7672;50.834;6.286;2024-03-17T02:58:59;8.50;99.90
15143;DHT22;7672;50.834;6.286;2024-03-17T03:01:25;8.50;99.90
15143;DHT22;7672;50.834;6.286;2024-03-17T03:03:51;8.50;99.90
15143;DHT22;7672;50.834;6.286;2024-03-17T03:06:18;8.20;99.90
15143;DHT22;7672;50.834;6.286;2024-03-17T03:08:45;8.50;99.90
15143;DHT22;7672;50.834;6.286;2024-03-17T03:11:16;8.50;99.90
15143;DHT22;7672;50.834;6.286;2024-03-17T03:13:43;8.50;99.90
15143;DHT22;7672;50.834;6.286;2024-03-17T03:16:13;8.50;99.90
15143;DHT22;7672;50.834;6.286;2024-03-17T03:18:40;8.50;99.90
15143;DHT22;7672;50.834;6.286;2024-03-17T03:21:08;8.50;99.90
15143;DHT22;7672;50.834;6.286;2024-03-17T03:23:34;8.60;99.90
15143;DHT22;7672;50.834;6.286;2024-03-17T03:26:02;8.60;99.90
15143;DHT22;7672;50.834;6.286;2024-03-17T03:28:33;8.60;99.90
15143;DHT22;7672;50.834;6.286;2024-03-17T03:31:02;9.00;99.90
15143;DHT22;7672;50.834;6.286;2024-03-17T03:33:28;8.60;99.90
15143;DHT22;7672;50.834;6.286;2024-03-17T03:35:58;8.60;99.90
15143;DHT22;7672;50.834;6.286;2024-03-17T03:38:38;8.70;99.90
15143;DHT22;7672;50.834;6.286;2024-03-17T03:41:13;9.20;99.90
15143;DHT22;7672;50.834;6.286;2024-03-17T03:43:41;8.70;99.90
15143;DHT22;7672;50.834;6.286;2024-03-17T03:46:09;8.70;99.90
15143;DHT22;7672;50.834;6.286;2024-03-17T03:48:35;8.70;99.90
15143;DHT22;7672;50.834;6.286;2024-03-17T03:51:05;8.70;99.90
15143;DHT22;7672;50.834;6.286;2024-03-17T03:53:38;8.70;99.90
15143;DHT22;7672;50.834;6.286;2024-03-17T03:56:05;8.70;99.90
15143;DHT22;7672;50.834;6.286;2024-03-17T03:58:33;8.80;99.90
15143;DHT22;7672;50.834;6.286;2024-03-17T04:01:06;9.10;99.90
15143;DHT22;7672;50.834;6.286;2024-03-17T04:03:34;9.00;99.90
15143;DHT22;7672;50.834;6.286;2024-03-17T04:06:06;9.20;99.90
15143;DHT22;7672;50.834;6.286;2024-03-17T04:08:34;8.80;99.90
15143;DHT22;7672;50.834;6.286;2024-03-17T04:11:02;8.80;99.90
15143;DHT22;7672;50.834;6.286;2024-03-17T04:13:31;8.80;99.90
15143;DHT22;7672;50.834;6.286;2024-03-17T04:16:05;9.00;99.90
15143;DHT22;7672;50.834;6.286;2024-03-17T04:18:32;8.90;99.90
15143;DHT22;7672;50.834;6.286;2024-03-17T04:21:02;8.90;99.90
15143;DHT22;7672;50.834;6.286;2024-03-17T04:23:30;8.90;99.90
15143;DHT22;7672;50.834;6.286;2024-03-17T04:26:00;8.90;99.90
15143;DHT22;7672;50.834;6.286;2024-03-17T04:28:27;9.00;99.90
15143;DHT22;7672;50.834;6.286;2024-03-17T04:31:02;9.00;99.90
15143;DHT22;7672;50.834;6.286;2024-03-17T04:33:32;9.00;99.90
15143;DHT22;7672;50.834;6.286;2024-03-17T04:36:00;9.00;99.90
15143;DHT22;7672;50.834;6.286;2024-03-17T04:38:28;9.00;99.90
15143;DHT22;7672;50.834;6.286;2024-03-17T04:40:54;9.00;99.90
15143;DHT22;7672;50.834;6.286;2024-03-17T04:43:35;9.10;99.90
15143;DHT22;7672;50.834;6.286;2024-03-17T04:46:05;9.10;99.90
15143;DHT22;7672;50.834;6.286;2024-03-17T04:48:33;9.10;99.90
15143;DHT22;7672;50.834;6.286;2024-03-17T04:51:00;9.10;99.90
15143;DHT22;7672;50.834;6.286;2024-03-17T04:53:27;9.10;99.90
15143;DHT22;7672;50.834;6.286;2024-03-17T04:56:04;9.10;99.90
15143;DHT22;7672;50.834;6.286;2024-03-17T04:58:32;9.10;99.90
15143;DHT22;7672;50.834;6.286;2024-03-17T05:01:03;9.10;99.90
15143;DHT22;7672;50.834;6.286;2024-03-17T05:03:34;9.10;99.90
15143;DHT22;7672;50.834;6.286;2024-03-17T05:06:04;9.10;99.90
15143;DHT22;7672;50.834;6.286;2024-03-17T05:08:32;9.00;99.90
15143;DHT22;7672;50.834;6.286;2024-03-17T05:11:04;9.00;99.90
15143;DHT22;7672;50.834;6.286;2024-03-17T05:13:32;9.00;99.90
15143;DHT22;7672;50.834;6.286;2024-03-17T05:16:00;9.00;99.90
15143;DHT22;7672;50.834;6.286;2024-03-17T05:18:28;8.90;99.90
15143;DHT22;7672;50.834;6.286;2024-03-17T05:21:01;8.90;99.90
15143;DHT22;7672;50.834;6.286;2024-03-17T05:23:30;8.90;99.90
15143;DHT22;7672;50.834;6.286;2024-03-17T05:25:59;8.90;99.90
15143;DHT22;7672;50.834;6.286;2024-03-17T05:28:27;8.90;99.90
15143;DHT22;7672;50.834;6.286;2024-03-17T05:30:55;8.80;99.90
15143;DHT22;7672;50.834;6.286;2024-03-17T05:33:23;8.80;99.90
15143;DHT22;7672;50.834;6.286;2024-03-17T05:35:59;8.80;99.90
15143;DHT22;7672;50.834;6.286;2024-03-17T05:38:29;8.80;99.90
15143;DHT22;7672;50.834;6.286;2024-03-17T05:41:01;8.80;99.90
15143;DHT22;7672;50.834;6.286;2024-03-17T05:43:38;8.70;99.90
15143;DHT22;7672;50.834;6.286;2024-03-17T05:46:08;8.70;99.90
15143;DHT22;7672;50.834;6.286;2024-03-17T05:48:37;8.80;99.90
15143;DHT22;7672;50.834;6.286;2024-03-17T05:51:05;8.70;99.90
15143;DHT22;7672;50.834;6.286;2024-03-17T05:53:33;9.10;99.90
15143;DHT22;7672;50.834;6.286;2024-03-17T05:56:00;8.70;99.90
15143;DHT22;7672;50.834;6.286;2024-03-17T05:58:27;8.70;99.90
15143;DHT22;7672;50.834;6.286;2024-03-17T06:00:53;8.70;99.90
15143;DHT22;7672;50.834;6.286;2024-03-17T06:03:19;8.70;99.90
15143;DHT22;7672;50.834;6.286;2024-03-17T06:05:47;8.70;99.90
15143;DHT22;7672;50.834;6.286;2024-03-17T06:08:14;8.70;99.90
15143;DHT22;7672;50.834;6.286;2024-03-17T06:10:45;8.70;99.90
15143;DHT22;7672;50.834;6.286;2024-03-17T06:13:13;8.70;99.90
15143;DHT22;7672;50.834;6.286;2024-03-17T06:15:44;8.70;99.90
15143;DHT22;7672;50.834;6.286;2024-03-17T06:18:14;8.80;99.90
15143;DHT22;7672;50.834;6.286;2024-03-17T06:20:41;8.90;99.90
15143;DHT22;7672;50.834;6.286;2024-03-17T06:23:10;9.00;99.90
15143;DHT22;7672;50.834;6.286;2024-03-17T06:25:44;9.20;99.90
15143;DHT22;7672;50.834;6.286;2024-03-17T06:28:12;9.30;99.90
15143;DHT22;7672;50.834;6.286;2024-03-17T06:30:56;9.40;99.90
15143;DHT22;7672;50.834;6.286;2024-03-17T06:33:25;9.70;99.90
15143;DHT22;7672;50.834;6.286;2024-03-17T06:35:54;9.90;99.90
15143;DHT22;7672;50.834;6.286;2024-03-17T06:38:20;10.20;99.90
15143;DHT22;7672;50.834;6.286;2024-03-17T06:40:53;10.50;99.90
15143;DHT22;7672;50.834;6.286;2024-03-17T06:43:20;10.90;99.90
15143;DHT22;7672;50.834;6.286;2024-03-17T06:45:56;11.20;99.90
15143;DHT22;7672;50.834;6.286;2024-03-17T06:48:24;11.60;99.90
15143;DHT22;7672;50.834;6.286;2024-03-17T06:50:51;12.00;99.90
15143;DHT22;7672;50.834;6.286;2024-03-17T06:53:21;12.50;99.90
15143;DHT22;7672;50.834;6.286;2024-03-17T06:55:58;12.90;99.90
15143;DHT22;7672;50.834;6.286;2024-03-17T06:58:26;13.50;99.90
15143;DHT22;7672;50.834;6.286;2024-03-17T07:00:54;14.00;99.90
15143;DHT22;7672;50.834;6.286;2024-03-17T07:03:26;14.50;99.90
15143;DHT22;7672;50.834;6.286;2024-03-17T07:05:55;14.90;99.90
15143;DHT22;7672;50.834;6.286;2024-03-17T07:08:22;15.30;99.90
15143;DHT22;7672;50.834;6.286;2024-03-17T07:11:02;15.80;99.90
15143;DHT22;7672;50.834;6.286;2024-03-17T07:13:34;16.40;99.90
15143;DHT22;7672;50.834;6.286;2024-03-17T07:16:05;17.00;99.90
15143;DHT22;7672;50.834;6.286;2024-03-17T07:18:32;17.60;99.90
15143;DHT22;7672;50.834;6.286;2024-03-17T07:21:00;18.10;99.90
15143;DHT22;7672;50.834;6.286;2024-03-17T07:23:28;18.60;99.90
15143;DHT22;7672;50.834;6.286;2024-03-17T07:26:01;18.90;99.90
15143;DHT22;7672;50.834;6.286;2024-03-17T07:28:28;19.10;99.90
15143;DHT22;7672;50.834;6.286;2024-03-17T07:30:56;19.20;99.90
15143;DHT22;7672;50.834;6.286;2024-03-17T07:33:24;19.30;99.90
15143;DHT22;7672;50.834;6.286;2024-03-17T07:35:55;19.20;99.90
15143;DHT22;7672;50.834;6.286;2024-03-17T07:38:24;19.20;99.90
15143;DHT22;7672;50.834;6.286;2024-03-17T07:41:04;19.00;99.90
15143;DHT22;7672;50.834;6.286;2024-03-17T07:43:33;18.90;99.90
15143;DHT22;7672;50.834;6.286;2024-03-17T07:46:01;18.80;99.90
15143;DHT22;7672;50.834;6.286;2024-03-17T07:48:28;18.80;99.90
15143;DHT22;7672;50.834;6.286;2024-03-17T07:51:02;18.70;99.90
15143;DHT22;7672;50.834;6.286;2024-03-17T07:53:33;18.70;99.90
15143;DHT22;7672;50.834;6.286;2024-03-17T07:56:06;19.10;99.90
15143;DHT22;7672;50.834;6.286;2024-03-17T07:58:36;19.20;99.90
15143;DHT22;7672;50.834;6.286;2024-03-17T08:03:33;19.50;99.90
15143;DHT22;7672;50.834;6.286;2024-03-17T08:06:02;19.50;99.90
15143;DHT22;7672;50.834;6.286;2024-03-17T08:08:29;19.60;99.90
15143;DHT22;7672;50.834;6.286;2024-03-17T08:10:56;19.90;99.90
15143;DHT22;7672;50.834;6.286;2024-03-17T08:13:23;20.30;99.90
15143;DHT22;7672;50.834;6.286;2024-03-17T08:15:57;20.80;99.90
15143;DHT22;7672;50.834;6.286;2024-03-17T08:18:28;21.40;99.90
15143;DHT22;7672;50.834;6.286;2024-03-17T08:20:54;22.10;99.90
15143;DHT22;7672;50.834;6.286;2024-03-17T08:23:24;22.70;99.90
15143;DHT22;7672;50.834;6.286;2024-03-17T08:25:57;23.10;99.90
15143;DHT22;7672;50.834;6.286;2024-03-17T08:28:25;23.40;99.90
15143;DHT22;7672;50.834;6.286;2024-03-17T08:31:02;23.60;99.90
15143;DHT22;7672;50.834;6.286;2024-03-17T08:33:30;23.70;99.90
15143;DHT22;7672;50.834;6.286;2024-03-17T08:35:57;23.80;99.90
15143;DHT22;7672;50.834;6.286;2024-03-17T08:38:28;24.00;99.90
15143;DHT22;7672;50.834;6.286;2024-03-17T08:40:56;24.10;99.90
15143;DHT22;7672;50.834;6.286;2024-03-17T08:43:23;24.10;99.90
15143;DHT22;7672;50.834;6.286;2024-03-17T08:46:10;24.00;99.90
15143;DHT22;7672;50.834;6.286;2024-03-17T08:48:38;23.90;99.90
15143;DHT22;7672;50.834;6.286;2024-03-17T08:51:06;23.80;99.90
15143;DHT22;7672;50.834;6.286;2024-03-17T08:53:33;23.70;99.90
15143;DHT22;7672;50.834;6.286;2024-03-17T08:56:00;23.70;99.90
15143;DHT22;7672;50.834;6.286;2024-03-17T08:58:28;23.70;99.90
15143;DHT22;7672;50.834;6.286;2024-03-17T09:00:55;23.90;99.90
15143;DHT22;7672;50.834;6.286;2024-03-17T09:03:22;24.10;99.90
15143;DHT22;7672;50.834;6.286;2024-03-17T09:05:48;24.30;99.90
15143;DHT22;7672;50.834;6.286;2024-03-17T09:08:25;24.70;99.90
15143;DHT22;7672;50.834;6.286;2024-03-17T09:10:53;24.90;99.90
15143;DHT22;7672;50.834;6.286;2024-03-17T09:13:23;25.00;99.90
15143;DHT22;7672;50.834;6.286;2024-03-17T09:15:59;25.10;99.90
15143;DHT22;7672;50.834;6.286;2024-03-17T09:18:32;25.20;99.90
15143;DHT22;7672;50.834;6.286;2024-03-17T09:21:04;24.90;99.90
15143;DHT22;7672;50.834;6.286;2024-03-17T09:23:31;24.70;99.90
15143;DHT22;7672;50.834;6.286;2024-03-17T09:26:03;24.60;99.90
15143;DHT22;7672;50.834;6.286;2024-03-17T09:28:30;24.50;99.90
15143;DHT22;7672;50.834;6.286;2024-03-17T09:30:58;24.50;99.90
15143;DHT22;7672;50.834;6.286;2024-03-17T09:33:25;24.30;99.90
15143;DHT22;7672;50.834;6.286;2024-03-17T09:36:00;24.30;99.90
15143;DHT22;7672;50.834;6.286;2024-03-17T09:38:29;24.20;99.90
15143;DHT22;7672;50.834;6.286;2024-03-17T09:40:56;24.20;99.90
15143;DHT22;7672;50.834;6.286;2024-03-17T09:43:27;24.30;99.90
15143;DHT22;7672;50.834;6.286;2024-03-17T09:45:54;24.30;99.90
15143;DHT22;7672;50.834;6.286;2024-03-17T09:48:28;24.60;99.90
15143;DHT22;7672;50.834;6.286;2024-03-17T09:50:59;24.60;99.90
15143;DHT22;7672;50.834;6.286;2024-03-17T09:53:31;24.80;99.90
15143;DHT22;7672;50.834;6.286;2024-03-17T09:56:13;25.00;99.90
15143;DHT22;7672;50.834;6.286;2024-03-17T09:58:45;25.20;99.90
15143;DHT22;7672;50.834;6.286;2024-03-17T10:01:11;25.40;99.90
15143;DHT22;7672;50.834;6.286;2024-03-17T10:03:48;25.50;99.90
15143;DHT22;7672;50.834;6.286;2024-03-17T10:06:22;25.70;99.90
15143;DHT22;7672;50.834;6.286;2024-03-17T10:08:54;25.70;99.90
15143;DHT22;7672;50.834;6.286;2024-03-17T10:11:31;25.80;99.90
15143;DHT22;7672;50.834;6.286;2024-03-17T10:14:00;25.90;99.90
15143;DHT22;7672;50.834;6.286;2024-03-17T10:16:30;26.00;99.90
15143;DHT22;7672;50.834;6.286;2024-03-17T10:21:33;26.00;99.90
15143;DHT22;7672;50.834;6.286;2024-03-17T10:24:12;25.90;99.90
15143;DHT22;7672;50.834;6.286;2024-03-17T10:26:49;25.80;99.90
15143;DHT22;7672;50.834;6.286;2024-03-17T10:29:21;25.60;99.90
15143;DHT22;7672;50.834;6.286;2024-03-17T10:32:01;25.40;99.90
15143;DHT22;7672;50.834;6.286;2024-03-17T10:34:30;25.10;99.90
15143;DHT22;7672;50.834;6.286;2024-03-17T10:37:15;24.80;99.90
15143;DHT22;7672;50.834;6.286;2024-03-17T10:39:51;24.50;99.90
15143;DHT22;7672;50.834;6.286;2024-03-17T10:42:30;24.20;99.90
15143;DHT22;7672;50.834;6.286;2024-03-17T10:45:01;23.80;99.90
15143;DHT22;7672;50.834;6.286;2024-03-17T10:47:34;23.50;99.90
15143;DHT22;7672;50.834;6.286;2024-03-17T10:50:01;23.30;99.90
15143;DHT22;7672;50.834;6.286;2024-03-17T10:52:32;23.00;99.90
15143;DHT22;7672;50.834;6.286;2024-03-17T10:55:02;22.80;99.90
15143;DHT22;7672;50.834;6.286;2024-03-17T10:57:46;22.60;99.90
15143;DHT22;7672;50.834;6.286;2024-03-17T11:00:16;22.30;99.90
15143;DHT22;7672;50.834;6.286;2024-03-17T11:02:45;22.20;99.90
15143;DHT22;7672;50.834;6.286;2024-03-17T11:05:17;22.10;99.90
15143;DHT22;7672;50.834;6.286;2024-03-17T11:07:45;21.90;99.90
15143;DHT22;7672;50.834;6.286;2024-03-17T11:12:53;21.50;99.90
15143;DHT22;7672;50.834;6.286;2024-03-17T11:18:04;21.00;99.90
15143;DHT22;7672;50.834;6.286;2024-03-17T11:23:28;20.40;99.90
15143;DHT22;7672;50.834;6.286;2024-03-17T11:25:56;20.40;99.90
15143;DHT22;7672;50.834;6.286;2024-03-17T11:34:26;20.00;99.90
15143;DHT22;7672;50.834;6.286;2024-03-17T11:37:01;19.80;99.90
15143;DHT22;7672;50.834;6.286;2024-03-17T11:39:48;19.80;99.90
15143;DHT22;7672;50.834;6.286;2024-03-17T11:42:22;19.70;99.90
15143;DHT22;7672;50.834;6.286;2024-03-17T11:44:57;19.60;99.90
15143;DHT22;7672;50.834;6.286;2024-03-17T11:47:40;19.50;99.90
15143;DHT22;7672;50.834;6.286;2024-03-17T11:50:08;19.60;99.90
15143;DHT22;7672;50.834;6.286;2024-03-17T11:52:37;19.50;99.90
15143;DHT22;7672;50.834;6.286;2024-03-17T11:55:04;19.50;99.90
15143;DHT22;7672;50.834;6.286;2024-03-17T11:57:30;19.50;99.90
15143;DHT22;7672;50.834;6.286;2024-03-17T11:59:57;19.50;99.90
15143;DHT22;7672;50.834;6.286;2024-03-17T12:02:26;19.40;99.90
15143;DHT22;7672;50.834;6.286;2024-03-17T12:04:56;19.60;99.90
15143;DHT22;7672;50.834;6.286;2024-03-17T12:07:25;19.60;99.90
15143;DHT22;7672;50.834;6.286;2024-03-17T12:09:54;19.70;99.90
15143;DHT22;7672;50.834;6.286;2024-03-17T12:12:25;19.70;99.90
15143;DHT22;7672;50.834;6.286;2024-03-17T12:15:03;19.80;99.90
15143;DHT22;7672;50.834;6.286;2024-03-17T12:17:42;19.80;99.90
15143;DHT22;7672;50.834;6.286;2024-03-17T12:20:18;20.00;99.90
15143;DHT22;7672;50.834;6.286;2024-03-17T12:22:47;20.10;99.90
15143;DHT22;7672;50.834;6.286;2024-03-17T12:25:18;20.20;99.90
15143;DHT22;7672;50.834;6.286;2024-03-17T12:27:47;20.40;99.90
15143;DHT22;7672;50.834;6.286;2024-03-17T12:30:15;20.50;99.90
15143;DHT22;7672;50.834;6.286;2024-03-17T12:32:43;20.40;99.90
15143;DHT22;7672;50.834;6.286;2024-03-17T12:35:15;20.40;99.90
15143;DHT22;7672;50.834;6.286;2024-03-17T12:37:44;20.40;99.90
15143;DHT22;7672;50.834;6.286;2024-03-17T12:40:23;20.40;99.90
15143;DHT22;7672;50.834;6.286;2024-03-17T12:42:50;20.30;99.90
15143;DHT22;7672;50.834;6.286;2024-03-17T12:45:20;20.30;99.90
15143;DHT22;7672;50.834;6.286;2024-03-17T12:47:49;20.20;99.90
15143;DHT22;7672;50.834;6.286;2024-03-17T12:50:16;20.20;99.90
15143;DHT22;7672;50.834;6.286;2024-03-17T12:52:53;20.10;99.90
15143;DHT22;7672;50.834;6.286;2024-03-17T12:55:21;19.90;99.90
15143;DHT22;7672;50.834;6.286;2024-03-17T12:58:07;19.80;99.90
15143;DHT22;7672;50.834;6.286;2024-03-17T13:01:04;19.80;99.90
15143;DHT22;7672;50.834;6.286;2024-03-17T13:03:32;19.40;99.90
15143;DHT22;7672;50.834;6.286;2024-03-17T13:06:03;19.30;99.90
15143;DHT22;7672;50.834;6.286;2024-03-17T13:08:33;19.20;99.90
15143;DHT22;7672;50.834;6.286;2024-03-17T13:11:00;19.10;99.90
15143;DHT22;7672;50.834;6.286;2024-03-17T13:13:26;19.00;99.90
15143;DHT22;7672;50.834;6.286;2024-03-17T13:15:52;18.90;99.90
15143;DHT22;7672;50.834;6.286;2024-03-17T13:18:19;18.80;99.90
15143;DHT22;7672;50.834;6.286;2024-03-17T13:20:47;18.70;99.90
15143;DHT22;7672;50.834;6.286;2024-03-17T13:23:15;18.60;99.90
15143;DHT22;7672;50.834;6.286;2024-03-17T13:25:43;18.60;99.90
15143;DHT22;7672;50.834;6.286;2024-03-17T13:28:11;18.60;99.90
15143;DHT22;7672;50.834;6.286;2024-03-17T13:30:37;18.50;99.90
15143;DHT22;7672;50.834;6.286;2024-03-17T13:33:04;18.40;99.90
15143;DHT22;7672;50.834;6.286;2024-03-17T13:35:35;18.40;99.90
15143;DHT22;7672;50.834;6.286;2024-03-17T13:38:09;18.40;99.90
15143;DHT22;7672;50.834;6.286;2024-03-17T13:40:38;18.40;99.90
15143;DHT22;7672;50.834;6.286;2024-03-17T13:43:04;18.40;99.90
15143;DHT22;7672;50.834;6.286;2024-03-17T13:45:41;18.50;99.90
15143;DHT22;7672;50.834;6.286;2024-03-17T13:48:09;18.50;99.90
15143;DHT22;7672;50.834;6.286;2024-03-17T13:50:39;18.60;99.90
15143;DHT22;7672;50.834;6.286;2024-03-17T13:53:08;18.70;99.90
15143;DHT22;7672;50.834;6.286;2024-03-17T13:55:34;18.90;99.90
15143;DHT22;7672;50.834;6.286;2024-03-17T13:58:01;19.00;99.90
15143;DHT22;7672;50.834;6.286;2024-03-17T14:00:29;19.10;99.90
15143;DHT22;7672;50.834;6.286;2024-03-17T14:02:57;19.20;99.90
15143;DHT22;7672;50.834;6.286;2024-03-17T14:05:24;19.40;99.90
15143;DHT22;7672;50.834;6.286;2024-03-17T14:07:53;19.50;99.90
15143;DHT22;7672;50.834;6.286;2024-03-17T14:10:20;19.60;99.90
15143;DHT22;7672;50.834;6.286;2024-03-17T14:12:47;19.60;99.90
15143;DHT22;7672;50.834;6.286;2024-03-17T14:15:14;19.60;99.90
15143;DHT22;7672;50.834;6.286;2024-03-17T14:17:51;19.70;99.90
15143;DHT22;7672;50.834;6.286;2024-03-17T14:20:17;19.80;99.90
15143;DHT22;7672;50.834;6.286;2024-03-17T14:22:45;20.00;99.90
15143;DHT22;7672;50.834;6.286;2024-03-17T14:25:20;20.10;99.90
15143;DHT22;7672;50.834;6.286;2024-03-17T14:27:50;20.20;99.90
15143;DHT22;7672;50.834;6.286;2024-03-17T14:30:18;20.20;99.90
15143;DHT22;7672;50.834;6.286;2024-03-17T14:32:46;20.20;99.90
15143;DHT22;7672;50.834;6.286;2024-03-17T14:35:14;20.20;99.90
15143;DHT22;7672;50.834;6.286;2024-03-17T14:37:42;20.30;99.90
15143;DHT22;7672;50.834;6.286;2024-03-17T14:40:12;20.20;99.90
15143;DHT22;7672;50.834;6.286;2024-03-17T14:42:43;20.20;99.90
15143;DHT22;7672;50.834;6.286;2024-03-17T14:45:10;20.20;99.90
15143;DHT22;7672;50.834;6.286;2024-03-17T14:47:37;20.30;99.90
15143;DHT22;7672;50.834;6.286;2024-03-17T14:50:03;20.30;99.90
15143;DHT22;7672;50.834;6.286;2024-03-17T14:52:29;20.40;99.90
15143;DHT22;7672;50.834;6.286;2024-03-17T14:54:55;20.40;99.90
15143;DHT22;7672;50.834;6.286;2024-03-17T14:57:22;20.30;99.90
15143;DHT22;7672;50.834;6.286;2024-03-17T14:59:48;20.30;99.90
15143;DHT22;7672;50.834;6.286;2024-03-17T15:02:14;20.20;99.90
15143;DHT22;7672;50.834;6.286;2024-03-17T15:04:41;20.20;99.90
15143;DHT22;7672;50.834;6.286;2024-03-17T15:07:07;20.20;99.90
15143;DHT22;7672;50.834;6.286;2024-03-17T15:09:35;20.10;99.90
15143;DHT22;7672;50.834;6.286;2024-03-17T15:12:01;20.00;99.90
15143;DHT22;7672;50.834;6.286;2024-03-17T15:14:29;20.00;99.90
15143;DHT22;7672;50.834;6.286;2024-03-17T15:16:57;19.90;99.90
15143;DHT22;7672;50.834;6.286;2024-03-17T15:19:23;19.80;99.90
15143;DHT22;7672;50.834;6.286;2024-03-17T15:21:49;19.90;99.90
15143;DHT22;7672;50.834;6.286;2024-03-17T15:24:16;19.70;99.90
15143;DHT22;7672;50.834;6.286;2024-03-17T15:26:42;19.70;99.90
15143;DHT22;7672;50.834;6.286;2024-03-17T15:29:09;19.70;99.90
15143;DHT22;7672;50.834;6.286;2024-03-17T15:31:35;19.70;99.90
15143;DHT22;7672;50.834;6.286;2024-03-17T15:34:01;19.70;99.90
15143;DHT22;7672;50.834;6.286;2024-03-17T15:36:27;19.70;99.90
15143;DHT22;7672;50.834;6.286;2024-03-17T15:38:55;19.70;99.90
15143;DHT22;7672;50.834;6.286;2024-03-17T15:41:21;19.70;99.90
15143;DHT22;7672;50.834;6.286;2024-03-17T15:43:47;19.70;99.90
15143;DHT22;7672;50.834;6.286;2024-03-17T15:46:15;19.70;99.90
15143;DHT22;7672;50.834;6.286;2024-03-17T15:48:44;19.70;99.90
15143;DHT22;7672;50.834;6.286;2024-03-17T15:51:11;19.60;99.90
15143;DHT22;7672;50.834;6.286;2024-03-17T15:53:38;19.60;99.90
15143;DHT22;7672;50.834;6.286;2024-03-17T15:56:05;19.60;99.90
15143;DHT22;7672;50.834;6.286;2024-03-17T15:58:34;19.60;99.90
15143;DHT22;7672;50.834;6.286;2024-03-17T16:01:05;19.50;99.90
15143;DHT22;7672;50.834;6.286;2024-03-17T16:03:39;19.50;99.90
15143;DHT22;7672;50.834;6.286;2024-03-17T16:06:10;19.60;99.90
15143;DHT22;7672;50.834;6.286;2024-03-17T16:08:43;19.50;99.90
15143;DHT22;7672;50.834;6.286;2024-03-17T16:11:16;19.50;99.90
15143;DHT22;7672;50.834;6.286;2024-03-17T16:13:46;19.50;99.90
15143;DHT22;7672;50.834;6.286;2024-03-17T16:16:17;19.50;99.90
15143;DHT22;7672;50.834;6.286;2024-03-17T16:18:44;19.50;99.90
15143;DHT22;7672;50.834;6.286;2024-03-17T16:21:21;19.50;99.90
15143;DHT22;7672;50.834;6.286;2024-03-17T16:24:03;19.40;99.90
15143;DHT22;7672;50.834;6.286;2024-03-17T16:26:35;19.40;99.90
15143;DHT22;7672;50.834;6.286;2024-03-17T16:29:08;19.40;99.90
15143;DHT22;7672;50.834;6.286;2024-03-17T16:31:35;19.40;99.90